sensor_id;sensor_type;location;lat;lon;timestamp;P1;durP1;ratioP1;P2;durP2;ratioP2
11000;SDS011;5553;48.506;8.870;2023-01-30T03:50:13;14.50;;;8.63;;
11000;SDS011;5553;48.506;8.870;2023-01-30T03:52:41;17.70;;;8.00;;
11000;SDS011;5553;48.506;8.870;2023-01-30T03:55:09;16.20;;;8.30;;
11000;SDS011;5553;48.506;8.870;2023-01-30T03:57:38;12.67;;;7.30;;
11000;SDS011;5553;48.506;8.870;2023-01-30T04:00:07;14.57;;;6.77;;
11000;SDS011;5553;48.506;8.870;2023-01-30T04:02:36;16.40;;;8.17;;
11000;SDS011;5553;48.506;8.870;2023-01-30T04:05:05;12.80;;;8.00;;
11000;SDS011;5553;48.506;8.870;2023-01-30T04:07:36;14.13;;;7.80;;
11000;SDS011;5553;48.506;8.870;2023-01-30T04:10:05;12.83;;;8.43;;
11000;SDS011;5553;48.506;8.870;2023-01-30T04:12:34;15.30;;;8.23;;
11000;SDS011;5553;48.506;8.870;2023-01-30T04:15:02;12.40;;;7.70;;
11000;SDS011;5553;48.506;8.870;2023-01-30T04:17:31;19.60;;;9.07;;
11000;SDS011;5553;48.506;8.870;2023-01-30T04:19:59;14.40;;;7.70;;
11000;SDS011;5553;48.506;8.870;2023-01-30T04:22:27;20.07;;;9.43;;
11000;SDS011;5553;48.506;8.870;2023-01-30T04:24:58;15.10;;;8.00;;
11000;SDS011;5553;48.506;8.870;2023-01-30T04:27:26;17.13;;;8.60;;
11000;SDS011;5553;48.506;8.870;2023-01-30T04:29:54;17.20;;;8.20;;
11000;SDS011;5553;48.506;8.870;2023-01-30T04:32:24;13.20;;;6.93;;
11000;SDS011;5553;48.506;8.870;2023-01-30T04:34:52;17.63;;;8.97;;
11000;SDS011;5553;48.506;8.870;2023-01-30T04:37:20;13.23;;;8.37;;
11000;SDS011;5553;48.506;8.870;2023-01-30T04:39:49;15.30;;;9.40;;
11000;SDS011;5553;48.506;8.870;2023-01-30T04:42:19;17.87;;;9.10;;
11000;SDS011;5553;48.506;8.870;2023-01-30T04:44:48;18.57;;;8.43;;
11000;SDS011;5553;48.506;8.870;2023-01-30T04:47:16;18.60;;;9.10;;
11000;SDS011;5553;48.506;8.870;2023-01-30T04:49:44;16.00;;;7.97;;
11000;SDS011;5553;48.506;8.870;2023-01-30T04:52:12;14.33;;;7.67;;
11000;SDS011;5553;48.506;8.870;2023-01-30T04:54:41;15.40;;;7.70;;
11000;SDS011;5553;48.506;8.870;2023-01-30T04:57:09;14.00;;;8.20;;
11000;SDS011;5553;48.506;8.870;2023-01-30T04:59:40;15.27;;;8.00;;
11000;SDS011;5553;48.506;8.870;2023-01-30T05:02:08;11.97;;;6.97;;
11000;SDS011;5553;48.506;8.870;2023-01-30T05:04:36;13.33;;;7.53;;
11000;SDS011;5553;48.506;8.870;2023-01-30T05:07:05;13.87;;;8.57;;
11000;SDS011;5553;48.506;8.870;2023-01-30T05:09:33;17.40;;;8.70;;
11000;SDS011;5553;48.506;8.870;2023-01-30T05:12:01;14.43;;;6.77;;
11000;SDS011;5553;48.506;8.870;2023-01-30T05:14:29;16.05;;;8.45;;
11000;SDS011;5553;48.506;8.870;2023-01-30T05:17:01;15.67;;;7.17;;
11000;SDS011;5553;48.506;8.870;2023-01-30T05:19:29;14.53;;;7.27;;
11000;SDS011;5553;48.506;8.870;2023-01-30T05:21:58;19.93;;;7.50;;
11000;SDS011;5553;48.506;8.870;2023-01-30T05:24:26;10.00;;;5.30;;
11000;SDS011;5553;48.506;8.870;2023-01-30T05:26:54;16.40;;;9.20;;
11000;SDS011;5553;48.506;8.870;2023-01-30T05:29:22;16.63;;;5.20;;
11000;SDS011;5553;48.506;8.870;2023-01-30T05:31:51;8.43;;;5.13;;
11000;SDS011;5553;48.506;8.870;2023-01-30T05:34:22;12.27;;;5.57;;
11000;SDS011;5553;48.506;8.870;2023-01-30T05:36:50;16.20;;;7.70;;
11000;SDS011;5553;48.506;8.870;2023-01-30T05:39:18;13.03;;;5.50;;
11000;SDS011;5553;48.506;8.870;2023-01-30T05:41:46;11.37;;;5.23;;
11000;SDS011;5553;48.506;8.870;2023-01-30T05:44:14;11.50;;;6.60;;
11000;SDS011;5553;48.506;8.870;2023-01-30T05:46:43;14.23;;;7.43;;
11000;SDS011;5553;48.506;8.870;2023-01-30T05:49:11;13.50;;;8.10;;
11000;SDS011;5553;48.506;8.870;2023-01-30T05:51:42;10.33;;;5.57;;
11000;SDS011;5553;48.506;8.870;2023-01-30T05:54:11;12.23;;;8.00;;
11000;SDS011;5553;48.506;8.870;2023-01-30T05:56:40;8.57;;;5.20;;
11000;SDS011;5553;48.506;8.870;2023-01-30T05:59:09;11.83;;;6.00;;
11000;SDS011;5553;48.506;8.870;2023-01-30T06:01:39;14.03;;;6.90;;
11000;SDS011;5553;48.506;8.870;2023-01-30T06:04:07;11.70;;;6.03;;
11000;SDS011;5553;48.506;8.870;2023-01-30T06:06:35;14.30;;;7.30;;
11000;SDS011;5553;48.506;8.870;2023-01-30T06:09:08;11.97;;;7.33;;
11000;SDS011;5553;48.506;8.870;2023-01-30T06:11:37;13.47;;;7.20;;
11000;SDS011;5553;48.506;8.870;2023-01-30T06:14:06;13.77;;;6.90;;
11000;SDS011;5553;48.506;8.870;2023-01-30T06:16:34;8.33;;;4.93;;
11000;SDS011;5553;48.506;8.870;2023-01-30T06:19:02;15.23;;;8.07;;
11000;SDS011;5553;48.506;8.870;2023-01-30T06:21:30;10.97;;;5.43;;
11000;SDS011;5553;48.506;8.870;2023-01-30T06:23:59;12.50;;;6.30;;
11000;SDS011;5553;48.506;8.870;2023-01-30T06:26:30;16.57;;;7.40;;
11000;SDS011;5553;48.506;8.870;2023-01-30T06:28:58;11.50;;;6.50;;
11000;SDS011;5553;48.506;8.870;2023-01-30T06:31:26;12.67;;;7.37;;
11000;SDS011;5553;48.506;8.870;2023-01-30T06:33:54;11.10;;;6.47;;
11000;SDS011;5553;48.506;8.870;2023-01-30T06:36:23;10.57;;;6.93;;
11000;SDS011;5553;48.506;8.870;2023-01-30T06:38:51;12.27;;;6.47;;
11000;SDS011;5553;48.506;8.870;2023-01-30T06:41:19;9.07;;;4.70;;
11000;SDS011;5553;48.506;8.870;2023-01-30T06:43:50;11.77;;;6.07;;
11000;SDS011;5553;48.506;8.870;2023-01-30T06:46:19;10.00;;;6.63;;
11000;SDS011;5553;48.506;8.870;2023-01-30T06:48:48;7.23;;;3.63;;
11000;SDS011;5553;48.506;8.870;2023-01-30T06:51:16;9.87;;;3.83;;
11000;SDS011;5553;48.506;8.870;2023-01-30T06:53:44;8.33;;;4.67;;
11000;SDS011;5553;48.506;8.870;2023-01-30T06:56:12;14.13;;;6.90;;
11000;SDS011;5553;48.506;8.870;2023-01-30T06:58:41;10.77;;;5.90;;
11000;SDS011;5553;48.506;8.870;2023-01-30T07:01:12;9.10;;;4.23;;
11000;SDS011;5553;48.506;8.870;2023-01-30T07:03:40;12.17;;;6.67;;
11000;SDS011;5553;48.506;8.870;2023-01-30T07:06:09;12.13;;;5.90;;
11000;SDS011;5553;48.506;8.870;2023-01-30T07:08:37;13.63;;;6.30;;
11000;SDS011;5553;48.506;8.870;2023-01-30T07:11:05;10.70;;;4.73;;
11000;SDS011;5553;48.506;8.870;2023-01-30T07:13:34;14.00;;;5.10;;
11000;SDS011;5553;48.506;8.870;2023-01-30T07:16:05;10.90;;;5.27;;
11000;SDS011;5553;48.506;8.870;2023-01-30T07:18:37;7.50;;;4.47;;
11000;SDS011;5553;48.506;8.870;2023-01-30T07:21:05;5.67;;;3.97;;
11000;SDS011;5553;48.506;8.870;2023-01-30T07:23:33;5.40;;;2.40;;
11000;SDS011;5553;48.506;8.870;2023-01-30T07:26:02;7.33;;;4.00;;
11000;SDS011;5553;48.506;8.870;2023-01-30T07:28:30;11.37;;;4.67;;
11000;SDS011;5553;48.506;8.870;2023-01-30T07:30:59;4.23;;;2.67;;
11000;SDS011;5553;48.506;8.870;2023-01-30T07:45:42;11.60;;;6.60;;
11000;SDS011;5553;48.506;8.870;2023-01-30T07:48:12;8.73;;;4.03;;
11000;SDS011;5553;48.506;8.870;2023-01-30T07:50:42;3.73;;;3.17;;
11000;SDS011;5553;48.506;8.870;2023-01-30T07:53:11;7.63;;;4.23;;
11000;SDS011;5553;48.506;8.870;2023-01-30T07:55:41;7.97;;;3.10;;
11000;SDS011;5553;48.506;8.870;2023-01-30T07:58:10;11.50;;;3.87;;
11000;SDS011;5553;48.506;8.870;2023-01-30T08:00:43;10.37;;;5.17;;
11000;SDS011;5553;48.506;8.870;2023-01-30T08:03:11;6.67;;;3.60;;
11000;SDS011;5553;48.506;8.870;2023-01-30T08:05:40;10.93;;;5.80;;
11000;SDS011;5553;48.506;8.870;2023-01-30T08:08:08;9.33;;;3.87;;
11000;SDS011;5553;48.506;8.870;2023-01-30T08:10:37;8.03;;;4.53;;
11000;SDS011;5553;48.506;8.870;2023-01-30T08:13:05;7.67;;;3.80;;
11000;SDS011;5553;48.506;8.870;2023-01-30T08:15:33;5.73;;;5.10;;
11000;SDS011;5553;48.506;8.870;2023-01-30T08:18:04;6.40;;;3.67;;
11000;SDS011;5553;48.506;8.870;2023-01-30T08:20:33;11.30;;;5.67;;
11000;SDS011;5553;48.506;8.870;2023-01-30T08:23:02;5.73;;;3.73;;
11000;SDS011;5553;48.506;8.870;2023-01-30T08:25:31;8.93;;;3.93;;
11000;SDS011;5553;48.506;8.870;2023-01-30T08:27:59;6.23;;;2.57;;
11000;SDS011;5553;48.506;8.870;2023-01-30T08:30:28;4.23;;;2.77;;
11000;SDS011;5553;48.506;8.870;2023-01-30T08:32:57;9.73;;;4.27;;
11000;SDS011;5553;48.506;8.870;2023-01-30T08:35:28;9.67;;;4.97;;
11000;SDS011;5553;48.506;8.870;2023-01-30T08:37:56;9.87;;;5.67;;
11000;SDS011;5553;48.506;8.870;2023-01-30T08:40:24;7.60;;;4.27;;
11000;SDS011;5553;48.506;8.870;2023-01-30T08:42:52;7.87;;;4.50;;
11000;SDS011;5553;48.506;8.870;2023-01-30T08:45:21;8.30;;;4.33;;
11000;SDS011;5553;48.506;8.870;2023-01-30T08:47:49;8.10;;;5.17;;
11000;SDS011;5553;48.506;8.870;2023-01-30T08:50:17;11.00;;;5.70;;
11000;SDS011;5553;48.506;8.870;2023-01-30T08:52:48;5.47;;;3.50;;
11000;SDS011;5553;48.506;8.870;2023-01-30T08:55:17;12.70;;;6.67;;
11000;SDS011;5553;48.506;8.870;2023-01-30T08:57:45;11.77;;;7.00;;
11000;SDS011;5553;48.506;8.870;2023-01-30T09:00:14;9.07;;;5.37;;
11000;SDS011;5553;48.506;8.870;2023-01-30T09:02:43;9.40;;;4.27;;
11000;SDS011;5553;48.506;8.870;2023-01-30T09:05:11;14.67;;;6.10;;
11000;SDS011;5553;48.506;8.870;2023-01-30T09:07:39;10.33;;;5.10;;
11000;SDS011;5553;48.506;8.870;2023-01-30T09:10:10;9.70;;;5.83;;
11000;SDS011;5553;48.506;8.870;2023-01-30T09:12:39;6.40;;;3.60;;
11000;SDS011;5553;48.506;8.870;2023-01-30T09:15:08;5.83;;;4.47;;
11000;SDS011;5553;48.506;8.870;2023-01-30T09:17:37;7.60;;;4.40;;
11000;SDS011;5553;48.506;8.870;2023-01-30T09:20:05;6.10;;;4.10;;
11000;SDS011;5553;48.506;8.870;2023-01-30T09:22:36;8.67;;;4.40;;
11000;SDS011;5553;48.506;8.870;2023-01-30T09:25:05;6.00;;;4.47;;
11000;SDS011;5553;48.506;8.870;2023-01-30T09:27:37;7.77;;;4.27;;
11000;SDS011;5553;48.506;8.870;2023-01-30T09:30:09;5.03;;;3.23;;
11000;SDS011;5553;48.506;8.870;2023-01-30T09:32:38;15.40;;;5.40;;
11000;SDS011;5553;48.506;8.870;2023-01-30T09:35:06;3.53;;;2.33;;
11000;SDS011;5553;48.506;8.870;2023-01-30T09:37:35;4.57;;;3.10;;
11000;SDS011;5553;48.506;8.870;2023-01-30T09:40:04;5.17;;;3.80;;
11000;SDS011;5553;48.506;8.870;2023-01-30T09:42:38;4.60;;;3.07;;
11000;SDS011;5553;48.506;8.870;2023-01-30T09:45:31;3.03;;;1.70;;
11000;SDS011;5553;48.506;8.870;2023-01-30T09:48:11;4.23;;;2.67;;
11000;SDS011;5553;48.506;8.870;2023-01-30T09:50:54;2.90;;;2.30;;
11000;SDS011;5553;48.506;8.870;2023-01-30T09:53:34;8.00;;;2.60;;
11000;SDS011;5553;48.506;8.870;2023-01-30T09:56:08;4.30;;;3.03;;
11000;SDS011;5553;48.506;8.870;2023-01-30T09:58:41;3.67;;;2.27;;
11000;SDS011;5553;48.506;8.870;2023-01-30T10:01:16;4.93;;;1.63;;
11000;SDS011;5553;48.506;8.870;2023-01-30T10:03:52;3.03;;;2.00;;
11000;SDS011;5553;48.506;8.870;2023-01-30T10:06:26;3.60;;;2.27;;
11000;SDS011;5553;48.506;8.870;2023-01-30T10:08:56;3.43;;;1.97;;
11000;SDS011;5553;48.506;8.870;2023-01-30T10:11:37;5.63;;;2.97;;
11000;SDS011;5553;48.506;8.870;2023-01-30T10:14:23;6.80;;;2.90;;
11000;SDS011;5553;48.506;8.870;2023-01-30T10:17:09;6.50;;;4.17;;
11000;SDS011;5553;48.506;8.870;2023-01-30T10:19:56;4.80;;;2.67;;
11000;SDS011;5553;48.506;8.870;2023-01-30T10:22:42;3.67;;;2.73;;
11000;SDS011;5553;48.506;8.870;2023-01-30T10:25:20;8.00;;;2.60;;
11000;SDS011;5553;48.506;8.870;2023-01-30T10:27:56;4.23;;;2.50;;
11000;SDS011;5553;48.506;8.870;2023-01-30T10:30:32;3.27;;;2.50;;
11000;SDS011;5553;48.506;8.870;2023-01-30T10:33:02;4.00;;;2.70;;
11000;SDS011;5553;48.506;8.870;2023-01-30T10:35:35;3.87;;;1.97;;
11000;SDS011;5553;48.506;8.870;2023-01-30T10:38:07;6.87;;;2.87;;
11000;SDS011;5553;48.506;8.870;2023-01-30T10:40:45;7.00;;;3.13;;
11000;SDS011;5553;48.506;8.870;2023-01-30T10:43:21;6.50;;;2.50;;
11000;SDS011;5553;48.506;8.870;2023-01-30T10:45:59;3.73;;;2.10;;
11000;SDS011;5553;48.506;8.870;2023-01-30T10:48:43;2.20;;;1.43;;
11000;SDS011;5553;48.506;8.870;2023-01-30T10:51:24;3.30;;;2.30;;
11000;SDS011;5553;48.506;8.870;2023-01-30T10:54:01;4.47;;;2.53;;
11000;SDS011;5553;48.506;8.870;2023-01-30T10:56:38;3.87;;;2.17;;
11000;SDS011;5553;48.506;8.870;2023-01-30T10:59:20;5.43;;;2.20;;
11000;SDS011;5553;48.506;8.870;2023-01-30T11:02:01;3.50;;;1.90;;
11000;SDS011;5553;48.506;8.870;2023-01-30T11:04:43;3.60;;;2.10;;
11000;SDS011;5553;48.506;8.870;2023-01-30T11:07:18;7.30;;;2.60;;
11000;SDS011;5553;48.506;8.870;2023-01-30T11:09:47;5.40;;;2.40;;
11000;SDS011;5553;48.506;8.870;2023-01-30T11:12:15;3.13;;;1.97;;
11000;SDS011;5553;48.506;8.870;2023-01-30T11:14:56;3.30;;;1.90;;
11000;SDS011;5553;48.506;8.870;2023-01-30T11:17:32;3.60;;;1.80;;
11000;SDS011;5553;48.506;8.870;2023-01-30T11:20:05;3.67;;;2.10;;
11000;SDS011;5553;48.506;8.870;2023-01-30T11:22:42;3.70;;;2.30;;
11000;SDS011;5553;48.506;8.870;2023-01-30T11:25:13;3.03;;;2.60;;
11000;SDS011;5553;48.506;8.870;2023-01-30T11:27:49;4.63;;;1.87;;
11000;SDS011;5553;48.506;8.870;2023-01-30T11:30:20;2.57;;;1.83;;
11000;SDS011;5553;48.506;8.870;2023-01-30T11:33:03;2.03;;;1.77;;
11000;SDS011;5553;48.506;8.870;2023-01-30T11:35:33;3.13;;;2.37;;
11000;SDS011;5553;48.506;8.870;2023-01-30T11:38:12;3.47;;;1.70;;
11000;SDS011;5553;48.506;8.870;2023-01-30T11:40:48;4.23;;;3.20;;
11000;SDS011;5553;48.506;8.870;2023-01-30T11:43:16;3.60;;;2.93;;
11000;SDS011;5553;48.506;8.870;2023-01-30T11:45:45;5.67;;;3.50;;
11000;SDS011;5553;48.506;8.870;2023-01-30T11:48:18;5.93;;;3.50;;
11000;SDS011;5553;48.506;8.870;2023-01-30T11:50:49;4.00;;;2.60;;
11000;SDS011;5553;48.506;8.870;2023-01-30T11:53:26;3.70;;;2.33;;
11000;SDS011;5553;48.506;8.870;2023-01-30T11:56:02;5.50;;;2.50;;
11000;SDS011;5553;48.506;8.870;2023-01-30T11:58:34;4.33;;;3.00;;
11000;SDS011;5553;48.506;8.870;2023-01-30T12:01:06;4.57;;;3.00;;
11000;SDS011;5553;48.506;8.870;2023-01-30T12:03:42;3.40;;;2.30;;
11000;SDS011;5553;48.506;8.870;2023-01-30T12:06:23;4.03;;;2.00;;
11000;SDS011;5553;48.506;8.870;2023-01-30T12:08:57;4.90;;;2.80;;
11000;SDS011;5553;48.506;8.870;2023-01-30T12:11:30;6.00;;;2.87;;
11000;SDS011;5553;48.506;8.870;2023-01-30T12:17:08;4.87;;;3.20;;
11000;SDS011;5553;48.506;8.870;2023-01-30T12:19:48;7.60;;;4.13;;
11000;SDS011;5553;48.506;8.870;2023-01-30T12:22:25;2.60;;;1.47;;
11000;SDS011;5553;48.506;8.870;2023-01-30T12:25:00;3.47;;;1.93;;
11000;SDS011;5553;48.506;8.870;2023-01-30T12:27:42;5.33;;;2.50;;
11000;SDS011;5553;48.506;8.870;2023-01-30T12:30:19;6.37;;;2.77;;
11000;SDS011;5553;48.506;8.870;2023-01-30T12:32:54;2.90;;;1.70;;
11000;SDS011;5553;48.506;8.870;2023-01-30T12:35:30;5.03;;;2.87;;
11000;SDS011;5553;48.506;8.870;2023-01-30T12:38:16;5.17;;;2.60;;
11000;SDS011;5553;48.506;8.870;2023-01-30T12:40:56;5.57;;;2.73;;
11000;SDS011;5553;48.506;8.870;2023-01-30T12:43:39;3.50;;;2.60;;
11000;SDS011;5553;48.506;8.870;2023-01-30T12:46:25;4.73;;;3.17;;
11000;SDS011;5553;48.506;8.870;2023-01-30T12:49:07;5.00;;;2.50;;
11000;SDS011;5553;48.506;8.870;2023-01-30T12:51:56;3.97;;;2.47;;
11000;SDS011;5553;48.506;8.870;2023-01-30T12:54:38;3.87;;;2.67;;
11000;SDS011;5553;48.506;8.870;2023-01-30T12:57:20;3.10;;;1.90;;
11000;SDS011;5553;48.506;8.870;2023-01-30T13:00:01;5.90;;;2.60;;
11000;SDS011;5553;48.506;8.870;2023-01-30T13:02:44;6.43;;;3.30;;
11000;SDS011;5553;48.506;8.870;2023-01-30T13:05:29;8.03;;;3.60;;
11000;SDS011;5553;48.506;8.870;2023-01-30T13:08:13;5.43;;;2.90;;
11000;SDS011;5553;48.506;8.870;2023-01-30T13:10:55;3.70;;;1.73;;
11000;SDS011;5553;48.506;8.870;2023-01-30T13:13:32;6.73;;;3.27;;
11000;SDS011;5553;48.506;8.870;2023-01-30T13:16:09;5.60;;;3.33;;
11000;SDS011;5553;48.506;8.870;2023-01-30T13:18:45;3.80;;;3.40;;
11000;SDS011;5553;48.506;8.870;2023-01-30T13:21:20;5.13;;;3.13;;
11000;SDS011;5553;48.506;8.870;2023-01-30T13:24:03;9.87;;;4.70;;
11000;SDS011;5553;48.506;8.870;2023-01-30T13:26:40;6.57;;;4.13;;
11000;SDS011;5553;48.506;8.870;2023-01-30T13:29:11;7.80;;;3.97;;
11000;SDS011;5553;48.506;8.870;2023-01-30T13:31:45;4.37;;;2.40;;
11000;SDS011;5553;48.506;8.870;2023-01-30T13:34:19;3.90;;;1.87;;
11000;SDS011;5553;48.506;8.870;2023-01-30T13:36:53;9.47;;;4.80;;
11000;SDS011;5553;48.506;8.870;2023-01-30T13:39:31;6.30;;;4.30;;
11000;SDS011;5553;48.506;8.870;2023-01-30T13:42:04;7.60;;;3.63;;
11000;SDS011;5553;48.506;8.870;2023-01-30T13:44:38;6.70;;;2.93;;
11000;SDS011;5553;48.506;8.870;2023-01-30T13:47:16;3.03;;;2.00;;
11000;SDS011;5553;48.506;8.870;2023-01-30T13:49:56;4.20;;;2.27;;
11000;SDS011;5553;48.506;8.870;2023-01-30T13:52:38;4.73;;;2.87;;
11000;SDS011;5553;48.506;8.870;2023-01-30T13:55:14;4.77;;;2.73;;
11000;SDS011;5553;48.506;8.870;2023-01-30T13:57:57;7.30;;;3.20;;
11000;SDS011;5553;48.506;8.870;2023-01-30T14:00:35;5.00;;;3.50;;
11000;SDS011;5553;48.506;8.870;2023-01-30T14:05:59;4.60;;;2.60;;
11000;SDS011;5553;48.506;8.870;2023-01-30T14:08:40;7.97;;;4.57;;
11000;SDS011;5553;48.506;8.870;2023-01-30T14:11:33;8.30;;;3.40;;
11000;SDS011;5553;48.506;8.870;2023-01-30T14:14:05;6.93;;;3.57;;
11000;SDS011;5553;48.506;8.870;2023-01-30T14:16:50;7.30;;;2.87;;
11000;SDS011;5553;48.506;8.870;2023-01-30T14:19:27;6.90;;;3.53;;
11000;SDS011;5553;48.506;8.870;2023-01-30T14:22:00;5.03;;;3.20;;
11000;SDS011;5553;48.506;8.870;2023-01-30T14:24:32;3.70;;;2.70;;
11000;SDS011;5553;48.506;8.870;2023-01-30T14:27:04;2.97;;;1.63;;
11000;SDS011;5553;48.506;8.870;2023-01-30T14:29:52;2.47;;;1.60;;
11000;SDS011;5553;48.506;8.870;2023-01-30T14:32:32;8.30;;;3.60;;
11000;SDS011;5553;48.506;8.870;2023-01-30T14:35:21;4.97;;;2.97;;
11000;SDS011;5553;48.506;8.870;2023-01-30T14:40:42;2.80;;;2.10;;
11000;SDS011;5553;48.506;8.870;2023-01-30T14:49:22;4.57;;;2.60;;
11000;SDS011;5553;48.506;8.870;2023-01-30T14:51:53;7.77;;;4.60;;
11000;SDS011;5553;48.506;8.870;2023-01-30T14:54:27;8.20;;;4.47;;
11000;SDS011;5553;48.506;8.870;2023-01-30T14:57:00;4.90;;;2.33;;
11000;SDS011;5553;48.506;8.870;2023-01-30T14:59:34;5.63;;;3.27;;
11000;SDS011;5553;48.506;8.870;2023-01-30T15:02:06;4.23;;;2.80;;
11000;SDS011;5553;48.506;8.870;2023-01-30T15:04:49;7.57;;;3.67;;
11000;SDS011;5553;48.506;8.870;2023-01-30T15:07:24;4.23;;;3.23;;
11000;SDS011;5553;48.506;8.870;2023-01-30T15:09:56;6.50;;;3.77;;
11000;SDS011;5553;48.506;8.870;2023-01-30T15:12:35;5.30;;;3.43;;
11000;SDS011;5553;48.506;8.870;2023-01-30T15:15:19;10.17;;;3.27;;
11000;SDS011;5553;48.506;8.870;2023-01-30T15:17:59;4.30;;;2.93;;
11000;SDS011;5553;48.506;8.870;2023-01-30T15:20:40;6.93;;;3.50;;
11000;SDS011;5553;48.506;8.870;2023-01-30T15:23:25;5.50;;;3.33;;
11000;SDS011;5553;48.506;8.870;2023-01-30T15:26:10;3.80;;;2.73;;
11000;SDS011;5553;48.506;8.870;2023-01-30T15:28:50;5.30;;;3.67;;
11000;SDS011;5553;48.506;8.870;2023-01-30T15:31:28;3.60;;;2.60;;
11000;SDS011;5553;48.506;8.870;2023-01-30T15:33:57;8.40;;;2.73;;
11000;SDS011;5553;48.506;8.870;2023-01-30T15:36:26;6.60;;;3.93;;
11000;SDS011;5553;48.506;8.870;2023-01-30T15:38:58;5.73;;;3.70;;
11000;SDS011;5553;48.506;8.870;2023-01-30T15:41:28;6.47;;;3.40;;
11000;SDS011;5553;48.506;8.870;2023-01-30T15:44:04;5.67;;;3.40;;
11000;SDS011;5553;48.506;8.870;2023-01-30T15:46:51;4.67;;;2.80;;
11000;SDS011;5553;48.506;8.870;2023-01-30T15:52:14;7.37;;;2.67;;
11000;SDS011;5553;48.506;8.870;2023-01-30T15:54:48;3.40;;;2.50;;
11000;SDS011;5553;48.506;8.870;2023-01-30T15:57:19;4.00;;;2.93;;
11000;SDS011;5553;48.506;8.870;2023-01-30T15:59:53;5.50;;;3.13;;
11000;SDS011;5553;48.506;8.870;2023-01-30T16:02:27;5.57;;;3.17;;
11000;SDS011;5553;48.506;8.870;2023-01-30T16:05:05;4.30;;;3.43;;
11000;SDS011;5553;48.506;8.870;2023-01-30T16:07:40;4.07;;;3.13;;
11000;SDS011;5553;48.506;8.870;2023-01-30T16:10:11;6.63;;;3.03;;
11000;SDS011;5553;48.506;8.870;2023-01-30T16:12:41;3.30;;;2.37;;
11000;SDS011;5553;48.506;8.870;2023-01-30T16:15:13;3.60;;;2.73;;
11000;SDS011;5553;48.506;8.870;2023-01-30T16:17:48;5.43;;;3.33;;
11000;SDS011;5553;48.506;8.870;2023-01-30T16:20:22;5.93;;;2.60;;
11000;SDS011;5553;48.506;8.870;2023-01-30T16:22:50;3.87;;;2.87;;
11000;SDS011;5553;48.506;8.870;2023-01-30T16:25:20;5.27;;;3.03;;
11000;SDS011;5553;48.506;8.870;2023-01-30T16:27:53;2.77;;;2.10;;
11000;SDS011;5553;48.506;8.870;2023-01-30T16:30:23;3.83;;;2.70;;
11000;SDS011;5553;48.506;8.870;2023-01-30T16:32:56;4.80;;;2.97;;
11000;SDS011;5553;48.506;8.870;2023-01-30T16:35:30;3.43;;;3.13;;
11000;SDS011;5553;48.506;8.870;2023-01-30T16:38:00;4.40;;;2.60;;
11000;SDS011;5553;48.506;8.870;2023-01-30T16:40:30;5.53;;;2.70;;
11000;SDS011;5553;48.506;8.870;2023-01-30T16:43:15;5.23;;;2.33;;
11000;SDS011;5553;48.506;8.870;2023-01-30T16:48:49;5.73;;;3.23;;
11000;SDS011;5553;48.506;8.870;2023-01-30T16:51:19;6.90;;;3.67;;
11000;SDS011;5553;48.506;8.870;2023-01-30T16:54:00;5.73;;;3.03;;
11000;SDS011;5553;48.506;8.870;2023-01-30T16:56:30;2.20;;;2.00;;
11000;SDS011;5553;48.506;8.870;2023-01-30T16:59:00;5.07;;;2.83;;
11000;SDS011;5553;48.506;8.870;2023-01-30T17:01:33;4.67;;;2.70;;
11000;SDS011;5553;48.506;8.870;2023-01-30T17:04:13;5.67;;;2.90;;
11000;SDS011;5553;48.506;8.870;2023-01-30T17:06:47;6.47;;;3.67;;
11000;SDS011;5553;48.506;8.870;2023-01-30T17:09:33;5.03;;;2.20;;
11000;SDS011;5553;48.506;8.870;2023-01-30T17:17:53;6.07;;;1.80;;
11000;SDS011;5553;48.506;8.870;2023-01-30T17:20:25;4.00;;;2.67;;
11000;SDS011;5553;48.506;8.870;2023-01-30T17:23:03;4.00;;;2.00;;
11000;SDS011;5553;48.506;8.870;2023-01-30T17:25:35;4.10;;;2.87;;
11000;SDS011;5553;48.506;8.870;2023-01-30T17:28:07;2.93;;;2.20;;
11000;SDS011;5553;48.506;8.870;2023-01-30T17:30:45;3.47;;;2.30;;
11000;SDS011;5553;48.506;8.870;2023-01-30T17:33:14;2.87;;;2.57;;
11000;SDS011;5553;48.506;8.870;2023-01-30T17:35:44;2.50;;;2.13;;
11000;SDS011;5553;48.506;8.870;2023-01-30T17:38:13;2.83;;;2.10;;
11000;SDS011;5553;48.506;8.870;2023-01-30T17:40:41;4.87;;;2.40;;
11000;SDS011;5553;48.506;8.870;2023-01-30T17:43:10;3.87;;;2.20;;
11000;SDS011;5553;48.506;8.870;2023-01-30T17:45:39;5.03;;;3.00;;
11000;SDS011;5553;48.506;8.870;2023-01-30T17:48:08;4.90;;;2.30;;
11000;SDS011;5553;48.506;8.870;2023-01-30T17:50:38;8.33;;;3.40;;
11000;SDS011;5553;48.506;8.870;2023-01-30T17:53:09;4.50;;;2.80;;
11000;SDS011;5553;48.506;8.870;2023-01-30T17:55:37;2.77;;;2.00;;
11000;SDS011;5553;48.506;8.870;2023-01-30T17:58:06;1.70;;;1.30;;
11000;SDS011;5553;48.506;8.870;2023-01-30T18:00:42;6.23;;;3.13;;
11000;SDS011;5553;48.506;8.870;2023-01-30T18:03:10;4.90;;;2.87;;
11000;SDS011;5553;48.506;8.870;2023-01-30T18:05:38;5.20;;;3.77;;
11000;SDS011;5553;48.506;8.870;2023-01-30T18:08:09;7.40;;;4.50;;
11000;SDS011;5553;48.506;8.870;2023-01-30T18:10:38;7.10;;;4.20;;
11000;SDS011;5553;48.506;8.870;2023-01-30T18:13:06;4.60;;;3.37;;
11000;SDS011;5553;48.506;8.870;2023-01-30T18:15:34;6.60;;;2.97;;
11000;SDS011;5553;48.506;8.870;2023-01-30T18:18:03;2.40;;;1.63;;
11000;SDS011;5553;48.506;8.870;2023-01-30T18:20:31;7.60;;;3.17;;
11000;SDS011;5553;48.506;8.870;2023-01-30T18:22:59;11.77;;;4.07;;
11000;SDS011;5553;48.506;8.870;2023-01-30T18:25:30;4.17;;;2.77;;
11000;SDS011;5553;48.506;8.870;2023-01-30T18:27:58;7.13;;;4.20;;
11000;SDS011;5553;48.506;8.870;2023-01-30T18:30:27;4.57;;;3.00;;
11000;SDS011;5553;48.506;8.870;2023-01-30T18:32:55;6.43;;;3.57;;
11000;SDS011;5553;48.506;8.870;2023-01-30T18:35:23;4.63;;;3.50;;
11000;SDS011;5553;48.506;8.870;2023-01-30T18:37:51;5.77;;;2.67;;
11000;SDS011;5553;48.506;8.870;2023-01-30T18:40:20;6.80;;;2.90;;
11000;SDS011;5553;48.506;8.870;2023-01-30T18:42:51;3.03;;;1.80;;
11000;SDS011;5553;48.506;8.870;2023-01-30T18:45:19;9.00;;;2.80;;
11000;SDS011;5553;48.506;8.870;2023-01-30T18:47:47;5.03;;;2.37;;
11000;SDS011;5553;48.506;8.870;2023-01-30T18:50:16;3.63;;;1.90;;
11000;SDS011;5553;48.506;8.870;2023-01-30T18:52:44;8.90;;;3.50;;
11000;SDS011;5553;48.506;8.870;2023-01-30T18:55:14;6.90;;;3.20;;
11000;SDS011;5553;48.506;8.870;2023-01-30T18:57:44;6.67;;;4.10;;
11000;SDS011;5553;48.506;8.870;2023-01-30T19:00:15;12.33;;;3.73;;
11000;SDS011;5553;48.506;8.870;2023-01-30T19:02:49;3.27;;;2.50;;
11000;SDS011;5553;48.506;8.870;2023-01-30T19:05:17;6.40;;;3.53;;
11000;SDS011;5553;48.506;8.870;2023-01-30T19:07:46;3.27;;;1.90;;
11000;SDS011;5553;48.506;8.870;2023-01-30T19:10:14;7.27;;;3.20;;
11000;SDS011;5553;48.506;8.870;2023-01-30T19:12:43;4.00;;;3.60;;
11000;SDS011;5553;48.506;8.870;2023-01-30T19:15:27;5.67;;;4.10;;
11000;SDS011;5553;48.506;8.870;2023-01-30T19:17:55;7.13;;;4.70;;
11000;SDS011;5553;48.506;8.870;2023-01-30T19:20:24;13.90;;;5.40;;
11000;SDS011;5553;48.506;8.870;2023-01-30T19:22:52;5.77;;;4.33;;
11000;SDS011;5553;48.506;8.870;2023-01-30T19:25:21;7.13;;;4.23;;
11000;SDS011;5553;48.506;8.870;2023-01-30T19:27:49;9.23;;;4.73;;
11000;SDS011;5553;48.506;8.870;2023-01-30T19:30:17;9.33;;;5.07;;
11000;SDS011;5553;48.506;8.870;2023-01-30T19:32:48;9.50;;;4.57;;
11000;SDS011;5553;48.506;8.870;2023-01-30T19:35:18;10.57;;;4.27;;
11000;SDS011;5553;48.506;8.870;2023-01-30T19:37:46;5.00;;;3.73;;
11000;SDS011;5553;48.506;8.870;2023-01-30T19:40:17;7.20;;;4.40;;
11000;SDS011;5553;48.506;8.870;2023-01-30T19:42:46;10.50;;;5.93;;
11000;SDS011;5553;48.506;8.870;2023-01-30T19:45:14;9.37;;;5.37;;
11000;SDS011;5553;48.506;8.870;2023-01-30T19:47:43;9.70;;;6.80;;
11000;SDS011;5553;48.506;8.870;2023-01-30T19:50:15;9.20;;;7.03;;
11000;SDS011;5553;48.506;8.870;2023-01-30T19:52:43;8.33;;;5.60;;
11000;SDS011;5553;48.506;8.870;2023-01-30T19:55:11;8.40;;;5.47;;
11000;SDS011;5553;48.506;8.870;2023-01-30T19:57:42;8.90;;;5.30;;